Time;durP1;ratioP1;P1;durP2;ratioP2;P2;SDS_P1;SDS_P2;PMS_P1;PMS_P2;Temp;Humidity;BMP_temperature;BMP_pressure;BME280_temperature;BME280_humidity;BME280_pressure;Samples;Min_cycle;Max_cycle;Signal;HPM_P1;HPM_P2
2022/05/30 00:01:26;;;;;;;;;;;10.30;99.90;;;;;;5070923;28;20284;-64
2022/05/30 00:03:54;;;;;;;;;;;10.40;99.90;;;;;;5070786;28;20698;-62
2022/05/30 00:06:23;;;;;;;;;;;10.30;99.90;;;;;;5068259;28;20247;-63
2022/05/30 00:08:51;;;;;;;;;;;10.30;99.90;;;;;;5078833;28;20716;-64
2022/05/30 00:11:19;;;;;;;;;;;10.30;99.90;;;;;;5072211;28;20205;-64
2022/05/30 00:13:47;;;;;;;;;;;10.40;99.90;;;;;;5070264;28;20328;-64
2022/05/30 00:16:16;;;;;;;;;;;10.20;99.90;;;;;;5074515;28;20194;-63
2022/05/30 00:18:46;;;;;;;;;;;10.10;99.90;;;;;;5071044;28;20288;-64
2022/05/30 00:21:17;;;;;;;;;;;10.10;99.90;;;;;;5063803;28;20229;-63
2022/05/30 00:23:45;;;;;;;;;;;10.00;99.90;;;;;;5068719;28;20197;-64
2022/05/30 00:26:13;;;;;;;;;;;10.00;99.90;;;;;;5072370;28;20597;-64
2022/05/30 00:28:41;;;;;;;;;;;10.00;99.90;;;;;;5072113;28;20206;-63
2022/05/30 00:31:09;;;;;;;;;;;10.00;99.90;;;;;;5072160;28;20292;-63
2022/05/30 00:33:37;;;;;;;;;;;10.10;99.90;;;;;;5071190;28;20198;-63
2022/05/30 00:36:06;;;;;;;;;;;10.10;99.90;;;;;;5071718;28;20606;-62
2022/05/30 00:38:34;;;;;;;;;;;10.10;99.90;;;;;;5071869;28;20189;-63
2022/05/30 00:41:03;;;;;;;;;;;10.00;99.90;;;;;;5071960;28;20217;-63
2022/05/30 00:43:32;;;;;;;;;;;10.00;99.90;;;;;;5070809;28;20238;-63
2022/05/30 00:46:00;;;;;;;;;;;9.90;99.90;;;;;;5071282;28;20213;-63
2022/05/30 00:48:30;;;;;;;;;;;9.90;99.90;;;;;;5075072;28;20296;-63
2022/05/30 00:51:00;;;;;;;;;;;9.90;99.90;;;;;;5071979;28;20622;-63
2022/05/30 00:53:29;;;;;;;;;;;9.90;99.90;;;;;;5071402;28;20190;-63
2022/05/30 00:55:58;;;;;;;;;;;9.80;99.90;;;;;;5071608;28;20300;-63
2022/05/30 00:58:27;;;;;;;;;;;9.80;99.90;;;;;;5071309;28;20290;-63
2022/05/30 01:00:55;;;;;;;;;;;9.80;99.90;;;;;;5071480;28;20225;-63
2022/05/30 01:08:53;;;;;;;;;;;9.80;99.90;;;;;;5054777;28;20248;-63
2022/05/30 01:11:20;;;;;;;;;;;9.80;99.90;;;;;;5071806;28;20608;-65
2022/05/30 01:13:48;;;;;;;;;;;9.70;99.90;;;;;;5070812;28;20247;-64
2022/05/30 01:16:16;;;;;;;;;;;9.60;99.90;;;;;;5070814;28;20276;-63
2022/05/30 01:18:47;;;;;;;;;;;9.60;99.90;;;;;;5070946;28;20251;-63
2022/05/30 01:21:28;;;;;;;;;;;9.60;99.90;;;;;;5072775;28;20202;-63
2022/05/30 01:24:02;;;;;;;;;;;9.60;99.90;;;;;;5072123;28;20261;-64
2022/05/30 01:26:38;;;;;;;;;;;9.50;99.90;;;;;;5070847;28;20657;-63
2022/05/30 01:29:09;;;;;;;;;;;9.50;99.90;;;;;;5073018;28;20281;-62
2022/05/30 01:31:37;;;;;;;;;;;9.40;99.90;;;;;;5068936;28;20284;-64
2022/05/30 01:34:05;;;;;;;;;;;9.40;99.90;;;;;;5068798;28;20233;-62
2022/05/30 01:36:33;;;;;;;;;;;9.40;99.90;;;;;;5072684;28;20189;-64
2022/05/30 01:39:00;;;;;;;;;;;9.20;99.90;;;;;;5075499;28;20222;-63
2022/05/30 01:41:28;;;;;;;;;;;9.20;99.90;;;;;;5070631;28;20674;-64
2022/05/30 01:43:56;;;;;;;;;;;9.20;99.90;;;;;;5075368;28;20202;-63
2022/05/30 01:46:26;;;;;;;;;;;9.30;99.90;;;;;;5070629;28;20259;-63
2022/05/30 01:48:54;;;;;;;;;;;9.20;99.90;;;;;;5069728;28;20194;-64
2022/05/30 01:51:22;;;;;;;;;;;9.20;99.90;;;;;;5072391;28;20607;-64
2022/05/30 01:53:51;;;;;;;;;;;9.20;99.90;;;;;;5070274;28;20251;-63
2022/05/30 01:56:19;;;;;;;;;;;9.20;99.90;;;;;;5074331;28;20590;-63
2022/05/30 01:58:47;;;;;;;;;;;9.20;99.90;;;;;;5083376;28;20194;-63
2022/05/30 02:01:17;;;;;;;;;;;9.30;99.90;;;;;;5073808;28;20230;-63
2022/05/30 02:03:47;;;;;;;;;;;9.20;99.90;;;;;;5074707;28;20213;-62
2022/05/30 02:06:15;;;;;;;;;;;9.20;99.90;;;;;;5077005;28;20280;-63
2022/05/30 02:08:43;;;;;;;;;;;9.20;99.90;;;;;;5074910;28;20746;-64
2022/05/30 02:11:11;;;;;;;;;;;9.20;99.90;;;;;;5071744;28;20251;-65
2022/05/30 02:13:39;;;;;;;;;;;9.10;99.90;;;;;;5073812;28;20202;-63
2022/05/30 02:18:56;;;;;;;;;;;9.10;99.90;;;;;;5072908;28;20367;-62
2022/05/30 02:21:24;;;;;;;;;;;9.10;99.90;;;;;;5071039;28;20256;-64
2022/05/30 02:23:51;;;;;;;;;;;9.00;99.90;;;;;;5073880;28;20671;-63
2022/05/30 02:26:19;;;;;;;;;;;9.00;99.90;;;;;;5074676;28;20281;-64
2022/05/30 02:28:49;;;;;;;;;;;9.00;99.90;;;;;;5072658;28;20737;-63
2022/05/30 02:31:31;;;;;;;;;;;9.00;99.90;;;;;;5076849;28;20290;-66
2022/05/30 02:36:45;;;;;;;;;;;8.90;99.90;;;;;;5033578;28;20264;-74
2022/05/30 02:39:14;;;;;;;;;;;8.90;99.90;;;;;;5032664;28;20294;-74
2022/05/30 02:41:42;;;;;;;;;;;8.90;99.90;;;;;;5032821;28;20249;-74
2022/05/30 02:44:10;;;;;;;;;;;8.90;99.90;;;;;;5031300;28;20245;-76
2022/05/30 02:46:38;;;;;;;;;;;9.00;99.90;;;;;;5035756;28;20226;-74
2022/05/30 02:49:08;;;;;;;;;;;8.90;99.90;;;;;;5033901;28;20203;-75
2022/05/30 02:51:35;;;;;;;;;;;8.80;99.90;;;;;;5033730;28;20203;-75
2022/05/30 02:54:03;;;;;;;;;;;8.90;99.90;;;;;;5031678;28;20234;-75
2022/05/30 02:56:31;;;;;;;;;;;8.80;99.90;;;;;;5032977;28;20210;-72
2022/05/30 02:58:59;;;;;;;;;;;8.90;99.90;;;;;;5031990;28;20622;-75
2022/05/30 03:01:27;;;;;;;;;;;8.80;99.90;;;;;;5029540;28;20627;-73
2022/05/30 03:03:55;;;;;;;;;;;8.80;99.90;;;;;;5032122;28;20199;-74
2022/05/30 03:06:24;;;;;;;;;;;8.80;99.90;;;;;;5030501;28;20623;-74
2022/05/30 03:08:52;;;;;;;;;;;8.70;99.90;;;;;;5032729;28;20222;-74
2022/05/30 03:11:20;;;;;;;;;;;8.60;99.90;;;;;;5032521;28;20682;-74
2022/05/30 03:13:48;;;;;;;;;;;8.60;99.90;;;;;;5032414;28;20241;-74
2022/05/30 03:16:16;;;;;;;;;;;8.60;99.90;;;;;;5037930;28;20233;-75
2022/05/30 03:18:44;;;;;;;;;;;8.60;99.90;;;;;;5035026;28;20199;-74
2022/05/30 03:21:12;;;;;;;;;;;8.60;99.90;;;;;;5031383;28;20675;-74
2022/05/30 03:23:42;;;;;;;;;;;8.70;99.90;;;;;;5031231;28;20194;-74
2022/05/30 03:26:10;;;;;;;;;;;8.70;99.90;;;;;;5030884;28;20203;-74
2022/05/30 03:28:38;;;;;;;;;;;8.80;99.90;;;;;;5030732;28;20252;-73
2022/05/30 03:31:07;;;;;;;;;;;8.80;99.90;;;;;;5030608;28;20202;-74
2022/05/30 03:33:35;;;;;;;;;;;8.90;99.90;;;;;;5029015;28;20226;-74
2022/05/30 03:36:07;;;;;;;;;;;8.80;99.90;;;;;;5029269;28;20253;-74
2022/05/30 03:38:35;;;;;;;;;;;8.90;99.90;;;;;;5026846;28;20235;-76
2022/05/30 03:41:04;;;;;;;;;;;8.80;99.90;;;;;;5031999;28;20231;-76
2022/05/30 03:43:32;;;;;;;;;;;8.80;99.90;;;;;;5032637;28;20194;-75
2022/05/30 03:46:00;;;;;;;;;;;8.90;99.90;;;;;;5035436;28;20209;-75
2022/05/30 03:48:28;;;;;;;;;;;9.00;99.90;;;;;;5032602;28;20199;-74
2022/05/30 03:50:56;;;;;;;;;;;8.90;99.90;;;;;;5032871;28;20236;-75
2022/05/30 03:53:24;;;;;;;;;;;8.90;99.90;;;;;;5032331;28;20691;-74
2022/05/30 03:55:52;;;;;;;;;;;8.80;99.90;;;;;;5032927;28;20199;-75
2022/05/30 03:58:21;;;;;;;;;;;8.90;99.90;;;;;;5032586;28;20230;-75
2022/05/30 04:00:49;;;;;;;;;;;9.00;99.90;;;;;;5026523;28;20230;-74
2022/05/30 04:03:16;;;;;;;;;;;9.00;99.90;;;;;;5025711;28;20226;-75
2022/05/30 04:05:44;;;;;;;;;;;9.10;99.90;;;;;;5032694;28;20281;-75
2022/05/30 04:08:12;;;;;;;;;;;9.20;99.90;;;;;;5032758;28;20692;-74
2022/05/30 04:10:40;;;;;;;;;;;9.10;99.90;;;;;;5031757;28;20258;-74
2022/05/30 04:13:08;;;;;;;;;;;9.10;99.90;;;;;;5036260;28;20285;-74
2022/05/30 04:15:37;;;;;;;;;;;9.10;99.90;;;;;;5028078;28;20195;-72
2022/05/30 04:18:06;;;;;;;;;;;9.20;99.90;;;;;;5023495;28;20329;-73
2022/05/30 04:20:34;;;;;;;;;;;9.20;99.90;;;;;;5029237;28;20278;-72
2022/05/30 04:23:02;;;;;;;;;;;9.20;99.90;;;;;;5031136;28;20626;-72
2022/05/30 04:25:29;;;;;;;;;;;9.40;99.90;;;;;;5032258;28;20226;-72
2022/05/30 04:27:57;;;;;;;;;;;9.50;99.90;;;;;;5025924;28;20241;-74
2022/05/30 04:30:25;;;;;;;;;;;9.60;99.90;;;;;;5025329;28;20278;-74
2022/05/30 04:32:54;;;;;;;;;;;9.60;99.90;;;;;;5026141;28;20253;-74
2022/05/30 04:35:22;;;;;;;;;;;9.50;99.90;;;;;;5031868;28;20290;-73
2022/05/30 04:37:50;;;;;;;;;;;9.60;99.90;;;;;;5025821;28;20286;-74
2022/05/30 04:40:19;;;;;;;;;;;9.60;99.90;;;;;;5030603;28;20611;-74
2022/05/30 04:42:47;;;;;;;;;;;9.50;99.90;;;;;;5028861;28;20209;-73
2022/05/30 04:45:15;;;;;;;;;;;9.50;99.90;;;;;;5031996;28;20615;-73
2022/05/30 04:47:43;;;;;;;;;;;9.60;99.90;;;;;;5031837;28;20241;-73
2022/05/30 04:50:14;;;;;;;;;;;9.70;99.90;;;;;;5032017;28;20198;-74
2022/05/30 04:52:42;;;;;;;;;;;9.60;99.90;;;;;;5031461;28;20792;-73
2022/05/30 04:55:10;;;;;;;;;;;9.50;99.90;;;;;;5031268;28;20285;-73
2022/05/30 04:57:42;;;;;;;;;;;9.50;99.90;;;;;;5031738;28;20230;-73
2022/05/30 05:00:11;;;;;;;;;;;9.60;99.90;;;;;;5031803;28;20289;-74
2022/05/30 05:02:39;;;;;;;;;;;9.60;99.90;;;;;;5031075;28;20329;-74
2022/05/30 05:05:07;;;;;;;;;;;9.60;99.90;;;;;;5031623;28;20213;-74
2022/05/30 05:07:40;;;;;;;;;;;9.70;99.90;;;;;;5031421;28;20281;-74
2022/05/30 05:10:25;;;;;;;;;;;9.60;99.90;;;;;;5031036;28;20198;-74
2022/05/30 05:12:53;;;;;;;;;;;9.70;99.90;;;;;;5030651;28;20211;-74
2022/05/30 05:15:21;;;;;;;;;;;9.90;99.90;;;;;;5031467;28;20202;-73
2022/05/30 05:17:49;;;;;;;;;;;10.00;99.90;;;;;;5031586;28;20206;-72
2022/05/30 05:20:16;;;;;;;;;;;10.20;99.90;;;;;;5031498;28;20206;-74
2022/05/30 05:22:45;;;;;;;;;;;10.40;99.90;;;;;;5030998;28;20655;-74
2022/05/30 05:25:13;;;;;;;;;;;10.60;99.90;;;;;;5031418;28;20211;-74
2022/05/30 05:27:41;;;;;;;;;;;10.70;99.90;;;;;;5031249;28;20735;-74
2022/05/30 05:30:10;;;;;;;;;;;10.90;99.90;;;;;;5031333;28;20269;-74
2022/05/30 05:32:38;;;;;;;;;;;11.10;99.90;;;;;;5030408;28;20301;-74
2022/05/30 05:35:06;;;;;;;;;;;11.20;99.90;;;;;;5031510;28;20297;-74
2022/05/30 05:37:34;;;;;;;;;;;11.30;99.90;;;;;;5031096;28;20885;-73
2022/05/30 05:40:03;;;;;;;;;;;11.20;99.90;;;;;;5030879;28;20234;-74
2022/05/30 05:42:31;;;;;;;;;;;11.30;99.90;;;;;;5030138;28;20736;-73
2022/05/30 05:44:58;;;;;;;;;;;11.40;99.90;;;;;;5031295;28;20282;-73
2022/05/30 05:47:26;;;;;;;;;;;11.50;99.90;;;;;;5030673;28;20635;-74
2022/05/30 05:49:58;;;;;;;;;;;11.60;99.90;;;;;;5031278;28;20573;-74
2022/05/30 05:52:28;;;;;;;;;;;11.60;99.90;;;;;;5030479;28;20253;-74
2022/05/30 05:54:56;;;;;;;;;;;11.60;99.90;;;;;;5031192;28;20199;-73
2022/05/30 05:57:25;;;;;;;;;;;11.60;99.90;;;;;;5030993;28;20207;-73
2022/05/30 05:59:53;;;;;;;;;;;11.60;99.90;;;;;;5031197;28;20206;-73
2022/05/30 06:02:22;;;;;;;;;;;11.40;99.90;;;;;;5030232;28;20281;-74
2022/05/30 06:04:52;;;;;;;;;;;11.60;99.90;;;;;;5031161;28;20202;-73
2022/05/30 06:07:20;;;;;;;;;;;11.60;99.90;;;;;;5030232;28;20290;-72
2022/05/30 06:09:47;;;;;;;;;;;11.70;99.90;;;;;;5029812;28;20202;-73
2022/05/30 06:12:15;;;;;;;;;;;11.70;99.90;;;;;;5029616;28;20221;-73
2022/05/30 06:14:45;;;;;;;;;;;11.70;99.90;;;;;;5029817;28;20285;-73
2022/05/30 06:17:13;;;;;;;;;;;11.70;99.90;;;;;;5029852;28;20230;-74
2022/05/30 06:19:41;;;;;;;;;;;11.80;99.90;;;;;;5030233;28;20201;-73
2022/05/30 06:22:10;;;;;;;;;;;11.90;99.90;;;;;;5029008;28;20230;-74
2022/05/30 06:24:37;;;;;;;;;;;12.00;99.90;;;;;;5029792;28;20233;-74
2022/05/30 06:27:06;;;;;;;;;;;12.20;99.90;;;;;;5030189;28;20225;-73
2022/05/30 06:29:34;;;;;;;;;;;12.20;99.90;;;;;;5030305;28;20664;-73
2022/05/30 06:32:04;;;;;;;;;;;12.10;99.90;;;;;;5030016;28;20269;-73
2022/05/30 06:34:32;;;;;;;;;;;12.10;99.90;;;;;;5030693;28;20199;-73
2022/05/30 06:37:00;;;;;;;;;;;12.30;99.90;;;;;;5030474;28;20194;-73
2022/05/30 06:39:28;;;;;;;;;;;12.30;99.90;;;;;;5030661;28;20233;-73
2022/05/30 06:41:56;;;;;;;;;;;12.30;99.90;;;;;;5030176;28;20226;-73
2022/05/30 06:44:23;;;;;;;;;;;12.30;99.90;;;;;;5034145;28;20680;-73
2022/05/30 06:46:51;;;;;;;;;;;12.30;99.90;;;;;;5034222;28;20660;-73
2022/05/30 06:49:20;;;;;;;;;;;12.30;99.90;;;;;;5034318;28;20610;-74
2022/05/30 06:51:48;;;;;;;;;;;12.30;99.90;;;;;;5033942;28;20299;-75
2022/05/30 06:54:16;;;;;;;;;;;12.30;99.90;;;;;;5033327;28;20219;-74
2022/05/30 06:58:12;;;;;;;;;;;12.40;99.90;;;;;;5033943;28;20719;-74
2022/05/30 06:59:31;;;;;;;;;;;12.40;99.90;;;;;;5034793;28;20226;-74
2022/05/30 07:02:00;;;;;;;;;;;12.50;99.90;;;;;;5032088;28;20215;-75
2022/05/30 07:04:31;;;;;;;;;;;12.70;99.90;;;;;;5036547;28;20227;-75
2022/05/30 07:07:02;;;;;;;;;;;12.70;99.90;;;;;;5032598;28;20194;-74
2022/05/30 07:09:30;;;;;;;;;;;12.70;99.90;;;;;;5031969;28;20229;-75
2022/05/30 07:11:58;;;;;;;;;;;12.70;99.90;;;;;;5033894;28;21798;-75
2022/05/30 07:14:26;;;;;;;;;;;12.80;99.90;;;;;;5033825;28;20234;-76
2022/05/30 07:16:53;;;;;;;;;;;12.70;99.90;;;;;;5029969;28;20202;-75
2022/05/30 07:19:21;;;;;;;;;;;12.80;99.90;;;;;;5028339;28;20681;-75
2022/05/30 07:21:50;;;;;;;;;;;12.90;99.90;;;;;;5029303;28;20223;-76
2022/05/30 07:24:18;;;;;;;;;;;12.90;99.90;;;;;;5028906;28;20841;-75
2022/05/30 07:26:46;;;;;;;;;;;12.90;99.90;;;;;;5025028;28;20213;-75
2022/05/30 07:29:14;;;;;;;;;;;13.00;99.90;;;;;;5015469;28;20779;-72
2022/05/30 07:31:41;;;;;;;;;;;13.20;99.90;;;;;;5016256;28;20288;-72
2022/05/30 07:34:09;;;;;;;;;;;13.10;99.90;;;;;;5014868;28;20286;-71
2022/05/30 07:36:37;;;;;;;;;;;13.00;99.90;;;;;;5016491;28;20298;-74
2022/05/30 07:39:06;;;;;;;;;;;13.10;99.90;;;;;;5016425;28;20290;-71
2022/05/30 07:41:38;;;;;;;;;;;13.30;99.90;;;;;;5015491;28;20227;-72
2022/05/30 07:44:06;;;;;;;;;;;13.30;99.90;;;;;;5014767;28;20237;-71
2022/05/30 07:46:34;;;;;;;;;;;13.40;99.90;;;;;;5016032;28;20289;-72
2022/05/30 07:49:03;;;;;;;;;;;13.70;99.90;;;;;;5017501;28;20210;-74
2022/05/30 07:51:31;;;;;;;;;;;13.80;99.90;;;;;;5014288;28;20203;-71
2022/05/30 07:53:58;;;;;;;;;;;13.80;99.90;;;;;;5016618;28;21019;-74
2022/05/30 07:56:28;;;;;;;;;;;13.80;99.90;;;;;;5015122;28;20651;-72
2022/05/30 07:58:56;;;;;;;;;;;14.00;99.90;;;;;;5015932;28;20206;-71
2022/05/30 08:01:24;;;;;;;;;;;13.80;99.90;;;;;;5015950;28;20347;-72
2022/05/30 08:03:51;;;;;;;;;;;13.90;99.90;;;;;;5015209;28;20187;-71
2022/05/30 08:06:20;;;;;;;;;;;13.80;99.90;;;;;;5016568;28;20318;-72
2022/05/30 08:08:49;;;;;;;;;;;13.80;99.90;;;;;;5015351;28;20218;-72
2022/05/30 08:11:17;;;;;;;;;;;13.80;99.90;;;;;;5015002;28;20281;-71
2022/05/30 08:13:48;;;;;;;;;;;13.70;99.90;;;;;;5014524;28;20199;-71
2022/05/30 08:16:17;;;;;;;;;;;13.90;99.90;;;;;;5016378;28;20214;-72
2022/05/30 08:19:05;;;;;;;;;;;14.10;99.90;;;;;;5015932;28;20211;-72
2022/05/30 08:21:37;;;;;;;;;;;14.40;99.90;;;;;;5014947;28;20758;-72
2022/05/30 08:24:05;;;;;;;;;;;14.70;99.90;;;;;;5015345;28;20201;-71
2022/05/30 08:26:33;;;;;;;;;;;14.50;99.90;;;;;;5015558;28;20314;-73
2022/05/30 08:29:02;;;;;;;;;;;14.60;99.90;;;;;;5015588;28;20201;-72
2022/05/30 08:31:30;;;;;;;;;;;14.60;99.90;;;;;;5014602;28;20844;-71
2022/05/30 08:33:58;;;;;;;;;;;14.60;99.90;;;;;;4996696;28;20310;-72
2022/05/30 08:36:25;;;;;;;;;;;15.00;99.90;;;;;;4995228;28;20234;-72
2022/05/30 08:41:46;;;;;;;;;;;15.20;99.90;;;;;;4995077;28;20300;-71
2022/05/30 08:41:49;;;;;;;;;;;15.10;99.90;;;;;;4994679;28;20257;-71
2022/05/30 08:44:19;;;;;;;;;;;15.00;99.90;;;;;;4996228;28;20195;-72
2022/05/30 08:46:49;;;;;;;;;;;14.70;99.90;;;;;;4995278;28;20289;-72
2022/05/30 08:49:21;;;;;;;;;;;14.40;99.90;;;;;;4995806;28;20811;-71
2022/05/30 08:51:59;;;;;;;;;;;14.20;99.90;;;;;;4994224;28;20191;-72
2022/05/30 08:54:30;;;;;;;;;;;14.10;99.90;;;;;;4995660;28;20203;-72
2022/05/30 08:56:59;;;;;;;;;;;14.20;99.90;;;;;;4995603;28;20199;-72
2022/05/30 08:59:47;;;;;;;;;;;14.40;99.90;;;;;;4994527;28;20329;-71
2022/05/30 09:02:20;;;;;;;;;;;14.50;99.90;;;;;;4993556;28;20213;-71
2022/05/30 09:04:50;;;;;;;;;;;14.40;99.90;;;;;;4994567;28;20210;-71
2022/05/30 09:07:21;;;;;;;;;;;14.40;99.90;;;;;;4994913;28;20215;-71
2022/05/30 09:09:50;;;;;;;;;;;14.40;99.90;;;;;;4993473;28;20214;-72
2022/05/30 09:12:22;;;;;;;;;;;14.30;99.90;;;;;;4994676;28;20289;-72
2022/05/30 09:14:52;;;;;;;;;;;14.30;99.90;;;;;;4994610;28;20282;-71
2022/05/30 09:17:24;;;;;;;;;;;14.30;99.90;;;;;;4995653;28;20334;-72
2022/05/30 09:19:54;;;;;;;;;;;14.30;99.90;;;;;;4993643;28;20909;-73
2022/05/30 09:22:24;;;;;;;;;;;14.40;99.90;;;;;;4994965;28;20112;-72
2022/05/30 09:27:34;;;;;;;;;;;14.40;99.90;;;;;;4994289;28;20234;-72
2022/05/30 09:30:06;;;;;;;;;;;14.30;99.90;;;;;;4994424;28;20630;-71
2022/05/30 09:32:38;;;;;;;;;;;14.30;99.90;;;;;;5001486;28;20301;-71
2022/05/30 09:35:20;;;;;;;;;;;14.40;99.90;;;;;;5011610;28;20310;-71
2022/05/30 09:38:03;;;;;;;;;;;14.50;99.90;;;;;;5009571;28;20216;-71
2022/05/30 09:40:35;;;;;;;;;;;14.90;99.90;;;;;;5009287;28;20215;-71
2022/05/30 09:43:04;;;;;;;;;;;14.90;99.90;;;;;;5010134;28;20723;-71
2022/05/30 09:45:34;;;;;;;;;;;14.80;99.90;;;;;;5006990;28;20227;-71
2022/05/30 09:48:03;;;;;;;;;;;14.90;99.90;;;;;;5010979;28;20302;-71
2022/05/30 09:50:31;;;;;;;;;;;15.10;99.90;;;;;;5006651;28;20278;-71
2022/05/30 09:52:59;;;;;;;;;;;15.30;99.90;;;;;;5011275;28;20199;-71
2022/05/30 09:55:31;;;;;;;;;;;15.40;99.90;;;;;;5009060;28;20294;-71
2022/05/30 09:58:02;;;;;;;;;;;15.50;99.90;;;;;;5012701;28;20837;-71
2022/05/30 10:00:37;;;;;;;;;;;15.70;99.90;;;;;;5008557;28;20301;-71
2022/05/30 10:03:07;;;;;;;;;;;15.90;99.90;;;;;;5011374;28;20830;-71
2022/05/30 10:05:36;;;;;;;;;;;16.00;99.90;;;;;;5004493;28;20222;-71
2022/05/30 10:08:05;;;;;;;;;;;15.80;99.90;;;;;;5011631;28;20778;-72
2022/05/30 10:10:37;;;;;;;;;;;15.80;99.90;;;;;;5007730;28;20203;-71
2022/05/30 10:13:06;;;;;;;;;;;15.90;99.90;;;;;;5009826;28;20226;-72
2022/05/30 10:15:37;;;;;;;;;;;15.80;99.90;;;;;;5009472;28;20737;-71
2022/05/30 10:18:22;;;;;;;;;;;15.80;99.90;;;;;;5013679;28;20530;-71
2022/05/30 10:20:54;;;;;;;;;;;16.00;99.90;;;;;;5012922;28;20218;-71
2022/05/30 10:29:12;;;;;;;;;;;16.90;99.90;;;;;;5012805;28;20779;-71
2022/05/30 10:31:46;;;;;;;;;;;17.00;99.90;;;;;;5012472;28;20722;-71
2022/05/30 10:34:22;;;;;;;;;;;17.40;99.90;;;;;;5014040;28;20203;-71
2022/05/30 10:36:55;;;;;;;;;;;17.30;99.90;;;;;;5012782;28;20555;-72
2022/05/30 10:39:29;;;;;;;;;;;17.70;99.90;;;;;;5015240;28;20321;-72
2022/05/30 10:41:59;;;;;;;;;;;18.10;99.90;;;;;;5011850;28;20286;-71
2022/05/30 10:44:29;;;;;;;;;;;18.30;99.90;;;;;;5014031;28;20329;-70
2022/05/30 10:47:02;;;;;;;;;;;18.50;99.90;;;;;;5013620;28;20293;-71
2022/05/30 10:49:33;;;;;;;;;;;18.60;99.90;;;;;;5014165;28;20229;-71
2022/05/30 10:52:02;;;;;;;;;;;18.60;99.50;;;;;;5011970;28;20234;-71
2022/05/30 10:54:33;;;;;;;;;;;18.30;99.70;;;;;;5014043;28;20213;-71
2022/05/30 10:57:09;;;;;;;;;;;18.40;99.50;;;;;;5014489;28;20211;-70
2022/05/30 10:59:39;;;;;;;;;;;18.40;99.90;;;;;;5012618;28;20314;-70
2022/05/30 11:02:12;;;;;;;;;;;18.30;99.90;;;;;;5012646;28;20224;-70
2022/05/30 11:04:46;;;;;;;;;;;18.20;99.90;;;;;;5012169;28;20202;-70
2022/05/30 11:07:24;;;;;;;;;;;17.80;99.90;;;;;;5012504;28;20234;-71
2022/05/30 11:09:56;;;;;;;;;;;17.40;99.90;;;;;;5010859;28;20205;-71
2022/05/30 11:12:26;;;;;;;;;;;16.90;99.90;;;;;;5014248;28;20253;-70
2022/05/30 11:15:01;;;;;;;;;;;16.60;99.90;;;;;;5013404;28;20228;-70
2022/05/30 11:17:51;;;;;;;;;;;16.30;99.90;;;;;;5013767;28;20203;-72
2022/05/30 11:20:22;;;;;;;;;;;15.70;99.90;;;;;;5009995;28;20290;-72
2022/05/30 11:22:51;;;;;;;;;;;15.40;99.90;;;;;;5014181;28;20292;-72
2022/05/30 11:25:22;;;;;;;;;;;15.40;99.90;;;;;;5013410;28;20302;-72
2022/05/30 11:27:53;;;;;;;;;;;15.00;99.90;;;;;;5013158;28;20322;-73
2022/05/30 11:30:35;;;;;;;;;;;14.90;99.90;;;;;;5008309;28;20302;-73
2022/05/30 11:33:12;;;;;;;;;;;14.80;99.90;;;;;;5013408;28;20206;-72
2022/05/30 11:35:44;;;;;;;;;;;14.80;99.90;;;;;;5011269;28;20604;-71
2022/05/30 11:38:28;;;;;;;;;;;14.90;99.90;;;;;;5012210;28;20264;-71
2022/05/30 11:41:00;;;;;;;;;;;15.00;99.90;;;;;;5011116;28;21322;-72
2022/05/30 11:43:37;;;;;;;;;;;14.90;99.90;;;;;;5009156;28;20215;-71
2022/05/30 11:46:10;;;;;;;;;;;15.00;99.90;;;;;;5014362;28;21001;-70
2022/05/30 11:48:45;;;;;;;;;;;15.00;99.90;;;;;;5010506;28;20334;-70
2022/05/30 11:51:20;;;;;;;;;;;15.30;99.90;;;;;;5010372;28;20207;-72
2022/05/30 11:53:56;;;;;;;;;;;15.60;99.90;;;;;;5008159;28;20826;-72
2022/05/30 11:56:29;;;;;;;;;;;16.00;99.90;;;;;;5013554;28;20213;-71
2022/05/30 11:59:03;;;;;;;;;;;16.20;99.90;;;;;;5012550;28;20281;-70
2022/05/30 12:01:32;;;;;;;;;;;16.50;99.90;;;;;;5010470;28;20314;-71
2022/05/30 12:04:15;;;;;;;;;;;16.90;99.90;;;;;;5012625;28;20277;-70
2022/05/30 12:06:59;;;;;;;;;;;17.50;99.90;;;;;;5008957;28;20218;-69
2022/05/30 12:09:36;;;;;;;;;;;18.20;99.90;;;;;;5013282;28;20281;-70
2022/05/30 12:12:14;;;;;;;;;;;18.60;99.90;;;;;;5009219;28;20207;-70
2022/05/30 12:15:00;;;;;;;;;;;19.30;99.90;;;;;;5011317;28;20839;-71
2022/05/30 12:23:47;;;;;;;;;;;19.60;99.60;;;;;;5010271;28;20210;-71
2022/05/30 12:23:52;;;;;;;;;;;19.60;98.80;;;;;;4976889;28;20322;-71
2022/05/30 12:26:35;;;;;;;;;;;18.90;99.10;;;;;;5002131;28;20345;-70
2022/05/30 12:29:02;;;;;;;;;;;17.70;99.90;;;;;;5007496;28;20308;-70
2022/05/30 12:31:48;;;;;;;;;;;17.30;99.90;;;;;;5009295;28;20272;-72
2022/05/30 12:34:16;;;;;;;;;;;17.20;99.90;;;;;;5010843;28;20775;-71
2022/05/30 12:36:47;;;;;;;;;;;17.20;99.90;;;;;;5008213;28;20215;-70
2022/05/30 12:39:38;;;;;;;;;;;17.20;99.90;;;;;;5011634;28;20264;-70
2022/05/30 12:42:09;;;;;;;;;;;17.20;99.90;;;;;;5007526;28;20214;-70
2022/05/30 12:44:51;;;;;;;;;;;17.30;99.90;;;;;;5010710;28;20257;-70
2022/05/30 12:47:21;;;;;;;;;;;17.40;99.90;;;;;;5010592;28;20298;-70
2022/05/30 12:49:49;;;;;;;;;;;17.30;99.90;;;;;;5009989;28;20237;-70
2022/05/30 12:52:18;;;;;;;;;;;17.30;99.90;;;;;;5007508;28;20202;-71
2022/05/30 12:55:00;;;;;;;;;;;17.50;99.90;;;;;;5011408;28;20775;-71
2022/05/30 12:57:36;;;;;;;;;;;17.50;99.90;;;;;;5010989;28;20252;-71
2022/05/30 13:00:25;;;;;;;;;;;17.40;99.90;;;;;;5009947;28;21100;-69
2022/05/30 13:03:03;;;;;;;;;;;17.20;99.90;;;;;;4979126;28;20250;-71
2022/05/30 13:05:41;;;;;;;;;;;17.20;99.90;;;;;;5009694;28;20676;-70
2022/05/30 13:08:24;;;;;;;;;;;17.40;99.90;;;;;;5010308;28;20206;-70
2022/05/30 13:10:56;;;;;;;;;;;17.40;99.90;;;;;;5009441;28;20607;-71
2022/05/30 13:13:28;;;;;;;;;;;17.60;99.90;;;;;;5008878;28;20252;-70
2022/05/30 13:16:01;;;;;;;;;;;17.80;99.90;;;;;;5012399;28;20206;-70
2022/05/30 13:18:31;;;;;;;;;;;17.90;99.90;;;;;;5009577;28;20218;-70
2022/05/30 13:21:01;;;;;;;;;;;18.10;99.90;;;;;;5009184;28;20203;-70
2022/05/30 13:23:29;;;;;;;;;;;18.20;99.90;;;;;;5005573;28;20280;-70
2022/05/30 13:25:59;;;;;;;;;;;18.70;99.70;;;;;;5003680;28;20282;-70
2022/05/30 13:28:29;;;;;;;;;;;18.90;99.20;;;;;;5008072;28;20210;-71
2022/05/30 13:30:57;;;;;;;;;;;19.00;99.40;;;;;;5010257;28;20230;-71
2022/05/30 13:33:26;;;;;;;;;;;18.70;99.60;;;;;;5009232;28;20316;-70
2022/05/30 13:35:57;;;;;;;;;;;18.40;98.90;;;;;;5011270;28;20749;-70
2022/05/30 13:38:28;;;;;;;;;;;18.40;99.10;;;;;;5008014;28;21211;-70
2022/05/30 13:40:56;;;;;;;;;;;18.80;99.20;;;;;;5009303;28;20740;-70
2022/05/30 13:43:33;;;;;;;;;;;19.50;96.80;;;;;;5010014;28;20218;-70
2022/05/30 13:46:24;;;;;;;;;;;20.40;99.10;;;;;;5010234;28;20478;-71
2022/05/30 13:48:53;;;;;;;;;;;20.80;97.60;;;;;;5009731;28;20203;-70
2022/05/30 13:51:25;;;;;;;;;;;20.60;96.40;;;;;;5010996;28;20284;-71
2022/05/30 13:53:54;;;;;;;;;;;20.60;95.90;;;;;;5011333;28;20339;-70
2022/05/30 13:56:24;;;;;;;;;;;20.60;95.70;;;;;;5015605;28;20291;-70
2022/05/30 13:58:55;;;;;;;;;;;20.40;95.80;;;;;;5012748;28;20202;-71
2022/05/30 14:01:25;;;;;;;;;;;20.40;96.10;;;;;;5010427;28;21039;-70
2022/05/30 14:03:57;;;;;;;;;;;20.00;95.90;;;;;;5011789;28;20232;-71
2022/05/30 14:06:30;;;;;;;;;;;19.40;96.20;;;;;;5013875;28;20249;-73
2022/05/30 14:08:58;;;;;;;;;;;18.60;97.50;;;;;;5012606;28;20296;-70
2022/05/30 14:11:26;;;;;;;;;;;18.10;98.10;;;;;;5011845;28;20231;-71
2022/05/30 14:13:55;;;;;;;;;;;17.70;98.70;;;;;;5013612;28;20202;-72
2022/05/30 14:16:32;;;;;;;;;;;17.70;99.70;;;;;;5012299;28;20206;-72
2022/05/30 14:19:02;;;;;;;;;;;17.30;98.80;;;;;;5013475;28;20291;-73
2022/05/30 14:21:35;;;;;;;;;;;17.20;99.90;;;;;;5010098;28;20225;-73
2022/05/30 14:24:13;;;;;;;;;;;17.50;98.40;;;;;;5011206;28;20588;-73
2022/05/30 14:26:42;;;;;;;;;;;17.70;98.40;;;;;;5012062;28;20291;-71
2022/05/30 14:29:24;;;;;;;;;;;17.60;98.60;;;;;;5010550;28;20299;-72
2022/05/30 14:32:02;;;;;;;;;;;17.60;98.50;;;;;;5011072;28;20230;-73
2022/05/30 14:34:34;;;;;;;;;;;17.80;98.00;;;;;;5014803;28;20213;-72
2022/05/30 14:37:02;;;;;;;;;;;17.80;97.40;;;;;;5008096;28;20207;-71
2022/05/30 14:39:31;;;;;;;;;;;17.90;97.20;;;;;;5012181;28;20316;-71
2022/05/30 14:42:00;;;;;;;;;;;17.80;97.00;;;;;;5008072;28;20822;-71
2022/05/30 14:44:36;;;;;;;;;;;17.60;96.80;;;;;;5012869;28;21023;-70
2022/05/30 14:47:08;;;;;;;;;;;17.70;97.30;;;;;;5014008;28;20710;-71
2022/05/30 14:49:44;;;;;;;;;;;17.70;98.60;;;;;;5014830;28;20199;-71
2022/05/30 14:52:16;;;;;;;;;;;17.70;98.30;;;;;;5011270;28;20235;-70
2022/05/30 14:54:46;;;;;;;;;;;17.80;97.00;;;;;;5011200;28;20325;-70
2022/05/30 14:57:21;;;;;;;;;;;17.90;97.60;;;;;;5012759;28;20278;-70
2022/05/30 14:59:50;;;;;;;;;;;18.20;97.30;;;;;;5010101;28;20230;-70
2022/05/30 15:05:01;;;;;;;;;;;19.50;94.90;;;;;;5010781;28;20910;-70
2022/05/30 15:07:30;;;;;;;;;;;19.80;95.60;;;;;;5010961;28;20205;-70